Time;durP1;ratioP1;P1;durP2;ratioP2;P2;SDS_P1;SDS_P2;PMS_P1;PMS_P2;Temp;Humidity;BMP_temperature;BMP_pressure;BME280_temperature;BME280_humidity;BME280_pressure;Samples;Min_cycle;Max_cycle;Signal;HPM_P1;HPM_P2
2023/07/14 00:00:56;;;;;;;;;;;26.30;45.50;;;;;;1507070;77;816;-70
2023/07/14 00:02:57;;;;;;;;;;;26.30;45.70;;;;;;1507308;77;1139;-69
2023/07/14 00:05:00;;;;;;;;;;;26.40;45.50;;;;;;1507360;77;643;-71
2023/07/14 00:07:03;;;;;;;;;;;26.40;45.40;;;;;;1508795;77;910;-73
2023/07/14 00:09:06;;;;;;;;;;;26.30;45.30;;;;;;1508119;77;808;-71
2023/07/14 00:11:15;;;;;;;;;;;26.30;45.40;;;;;;1511191;77;790;-69
2023/07/14 00:13:17;;;;;;;;;;;26.30;45.50;;;;;;1511679;77;1651;-72
2023/07/14 00:15:21;;;;;;;;;;;26.30;45.60;;;;;;1509619;77;595;-70
2023/07/14 00:17:22;;;;;;;;;;;26.30;45.50;;;;;;1510469;77;1913;-68
2023/07/14 00:19:24;;;;;;;;;;;26.30;45.50;;;;;;1512854;78;757;-69
2023/07/14 00:21:26;;;;;;;;;;;26.30;45.30;;;;;;1509120;77;664;-69
2023/07/14 00:23:28;;;;;;;;;;;26.30;45.10;;;;;;1511829;77;1152;-69
2023/07/14 00:25:30;;;;;;;;;;;26.40;45.00;;;;;;1507150;77;720;-69
2023/07/14 00:27:32;;;;;;;;;;;26.40;45.00;;;;;;1510633;77;1598;-69
2023/07/14 00:29:35;;;;;;;;;;;26.40;45.10;;;;;;1513991;77;804;-69
2023/07/14 00:31:37;;;;;;;;;;;26.40;45.00;;;;;;1502888;77;763;-70
2023/07/14 00:33:39;;;;;;;;;;;26.40;44.80;;;;;;1511724;77;1105;-69
2023/07/14 00:35:41;;;;;;;;;;;26.40;44.80;;;;;;1498903;77;950;-69
2023/07/14 00:37:43;;;;;;;;;;;26.40;44.80;;;;;;1502457;77;1920;-71
2023/07/14 00:39:44;;;;;;;;;;;26.40;44.90;;;;;;1516351;77;813;-69
2023/07/14 00:41:46;;;;;;;;;;;26.40;44.80;;;;;;1506814;77;1581;-72
2023/07/14 00:43:49;;;;;;;;;;;26.40;44.90;;;;;;1512037;77;683;-70
2023/07/14 00:45:51;;;;;;;;;;;26.30;45.20;;;;;;1509193;77;803;-70
2023/07/14 00:47:57;;;;;;;;;;;26.40;45.30;;;;;;1509908;77;818;-71
2023/07/14 00:49:58;;;;;;;;;;;26.30;45.40;;;;;;1514084;77;1493;-69
2023/07/14 00:52:03;;;;;;;;;;;26.30;45.50;;;;;;1512673;77;1158;-69
2023/07/14 00:54:05;;;;;;;;;;;26.20;45.50;;;;;;1496922;77;772;-69
2023/07/14 00:56:14;;;;;;;;;;;26.30;45.70;;;;;;1510717;77;1568;-69
2023/07/14 00:58:18;;;;;;;;;;;26.30;45.60;;;;;;1510029;77;1948;-69
2023/07/14 01:00:24;;;;;;;;;;;26.20;45.70;;;;;;1510740;77;1853;-71
2023/07/14 01:02:27;;;;;;;;;;;26.20;45.80;;;;;;1511139;77;1168;-70
2023/07/14 01:04:29;;;;;;;;;;;26.10;46.00;;;;;;1506626;77;749;-69
2023/07/14 01:06:32;;;;;;;;;;;26.20;46.00;;;;;;1513634;77;675;-70
2023/07/14 01:08:34;;;;;;;;;;;26.10;46.00;;;;;;1508249;77;672;-69
2023/07/14 01:10:36;;;;;;;;;;;26.10;46.00;;;;;;1520004;77;1441;-70
2023/07/14 01:12:39;;;;;;;;;;;26.20;46.10;;;;;;1511276;77;1174;-67
2023/07/14 01:14:44;;;;;;;;;;;26.10;46.00;;;;;;1511157;77;634;-70
2023/07/14 01:16:47;;;;;;;;;;;26.10;46.00;;;;;;1511447;77;708;-69
2023/07/14 01:18:49;;;;;;;;;;;26.20;46.00;;;;;;1511246;77;1929;-70
2023/07/14 01:20:51;;;;;;;;;;;26.20;45.90;;;;;;1512971;77;542;-70
2023/07/14 01:22:59;;;;;;;;;;;26.20;45.80;;;;;;1508581;77;1129;-69
2023/07/14 01:25:12;;;;;;;;;;;26.20;45.90;;;;;;1503687;77;829;-69
2023/07/14 01:27:14;;;;;;;;;;;26.20;46.00;;;;;;1504331;77;1891;-69
2023/07/14 01:29:16;;;;;;;;;;;26.20;46.20;;;;;;1513806;77;762;-69
2023/07/14 01:31:19;;;;;;;;;;;26.20;45.80;;;;;;1511195;77;758;-70
2023/07/14 01:33:21;;;;;;;;;;;26.20;45.80;;;;;;1512342;77;1112;-70
2023/07/14 01:35:24;;;;;;;;;;;26.20;45.80;;;;;;1506659;77;734;-72
2023/07/14 01:37:26;;;;;;;;;;;26.30;45.70;;;;;;1509498;77;1932;-69
2023/07/14 01:39:29;;;;;;;;;;;26.30;45.60;;;;;;1516882;77;1956;-70
2023/07/14 01:41:31;;;;;;;;;;;26.30;45.60;;;;;;1513648;77;702;-70
2023/07/14 01:43:32;;;;;;;;;;;26.30;45.50;;;;;;1513885;78;1121;-70
2023/07/14 01:45:45;;;;;;;;;;;26.30;45.50;;;;;;1513765;77;814;-70
2023/07/14 01:47:49;;;;;;;;;;;26.30;45.40;;;;;;1511131;78;692;-70
2023/07/14 01:49:51;;;;;;;;;;;26.40;45.50;;;;;;1499747;77;1802;-70
2023/07/14 01:51:52;;;;;;;;;;;26.30;45.40;;;;;;1505108;77;1541;-70
2023/07/14 01:54:05;;;;;;;;;;;26.30;45.40;;;;;;1512236;77;717;-70
2023/07/14 01:56:07;;;;;;;;;;;26.30;45.40;;;;;;1510589;77;760;-71
2023/07/14 01:58:11;;;;;;;;;;;26.30;45.30;;;;;;1514438;77;1938;-69
2023/07/14 02:00:13;;;;;;;;;;;26.30;45.20;;;;;;1512409;77;1168;-70
2023/07/14 02:02:16;;;;;;;;;;;26.30;45.40;;;;;;1511826;77;1159;-71
2023/07/14 02:04:20;;;;;;;;;;;26.30;45.20;;;;;;1505312;77;984;-70
2023/07/14 02:06:22;;;;;;;;;;;26.30;45.20;;;;;;1507780;77;1363;-70
2023/07/14 02:08:24;;;;;;;;;;;26.40;45.20;;;;;;1512231;77;778;-70
2023/07/14 02:10:26;;;;;;;;;;;26.30;45.10;;;;;;1508679;77;754;-69
2023/07/14 02:12:29;;;;;;;;;;;26.30;45.10;;;;;;1511246;77;1144;-70
2023/07/14 02:14:51;;;;;;;;;;;26.30;44.90;;;;;;1498927;77;674;-71
2023/07/14 02:16:52;;;;;;;;;;;26.30;45.00;;;;;;1513297;77;698;-70
2023/07/14 02:18:54;;;;;;;;;;;26.30;45.00;;;;;;1512089;77;1931;-70
2023/07/14 02:20:56;;;;;;;;;;;26.40;45.00;;;;;;1509679;77;1383;-69
2023/07/14 02:22:58;;;;;;;;;;;26.40;44.80;;;;;;1503087;77;1160;-70
2023/07/14 02:25:02;;;;;;;;;;;26.40;44.70;;;;;;1510904;77;751;-70
2023/07/14 02:27:04;;;;;;;;;;;26.40;44.60;;;;;;1510469;77;1702;-71
2023/07/14 02:29:10;;;;;;;;;;;26.40;44.40;;;;;;1512562;77;816;-69
2023/07/14 02:31:22;;;;;;;;;;;26.40;44.50;;;;;;1512696;77;676;-70
2023/07/14 02:33:29;;;;;;;;;;;26.50;44.30;;;;;;1506733;77;1583;-70
2023/07/14 02:35:36;;;;;;;;;;;26.40;44.70;;;;;;1508171;77;653;-70
2023/07/14 02:37:59;;;;;;;;;;;26.30;45.00;;;;;;1509370;77;915;-70
2023/07/14 02:39:45;;;;;;;;;;;26.30;45.10;;;;;;1499359;77;1931;-71
2023/07/14 02:41:49;;;;;;;;;;;26.30;45.10;;;;;;1513813;77;1151;-70
2023/07/14 02:43:53;;;;;;;;;;;26.20;45.20;;;;;;1503762;77;1888;-69
2023/07/14 02:45:59;;;;;;;;;;;26.30;45.10;;;;;;1506786;77;780;-69
2023/07/14 02:48:01;;;;;;;;;;;26.30;45.10;;;;;;1514445;77;1300;-69
2023/07/14 02:50:03;;;;;;;;;;;26.30;45.00;;;;;;1510788;77;783;-70
2023/07/14 02:52:04;;;;;;;;;;;26.30;44.90;;;;;;1512710;77;1101;-71
2023/07/14 02:54:06;;;;;;;;;;;26.30;44.90;;;;;;1503482;77;680;-69
2023/07/14 02:56:08;;;;;;;;;;;26.30;45.00;;;;;;1512588;77;851;-69
2023/07/14 02:58:10;;;;;;;;;;;26.30;45.00;;;;;;1513413;77;1953;-69
2023/07/14 03:00:12;;;;;;;;;;;26.30;44.70;;;;;;1513201;77;778;-71
2023/07/14 03:02:14;;;;;;;;;;;26.30;44.60;;;;;;1507939;77;1589;-69
2023/07/14 03:04:16;;;;;;;;;;;26.40;44.20;;;;;;1510292;77;768;-69
2023/07/14 03:06:18;;;;;;;;;;;26.40;44.20;;;;;;1512649;77;726;-69
2023/07/14 03:08:20;;;;;;;;;;;26.40;44.20;;;;;;1510440;77;774;-71
2023/07/14 03:10:22;;;;;;;;;;;26.40;44.10;;;;;;1510454;77;736;-71
2023/07/14 03:12:24;;;;;;;;;;;26.40;43.90;;;;;;1503006;77;1149;-71
2023/07/14 03:14:26;;;;;;;;;;;26.40;43.90;;;;;;1502768;77;529;-70
2023/07/14 03:16:28;;;;;;;;;;;26.30;44.10;;;;;;1511225;77;1546;-69
2023/07/14 03:18:30;;;;;;;;;;;26.40;44.10;;;;;;1500116;77;1933;-69
2023/07/14 03:20:32;;;;;;;;;;;26.40;43.80;;;;;;1513324;77;786;-69
2023/07/14 03:22:34;;;;;;;;;;;26.30;43.90;;;;;;1506687;77;1098;-69
2023/07/14 03:24:36;;;;;;;;;;;26.30;43.60;;;;;;1500862;77;813;-69
2023/07/14 03:26:37;;;;;;;;;;;26.40;43.70;;;;;;1514119;77;787;-70
2023/07/14 03:28:39;;;;;;;;;;;26.30;43.60;;;;;;1512911;77;712;-70
2023/07/14 03:30:41;;;;;;;;;;;26.30;43.60;;;;;;1511315;77;1558;-69
2023/07/14 03:32:43;;;;;;;;;;;26.30;43.60;;;;;;1508069;77;1169;-70
2023/07/14 03:34:45;;;;;;;;;;;26.40;43.70;;;;;;1509805;77;696;-71
2023/07/14 03:36:47;;;;;;;;;;;26.30;43.80;;;;;;1509507;77;738;-69
2023/07/14 03:38:49;;;;;;;;;;;26.30;43.50;;;;;;1510810;77;1941;-70
2023/07/14 03:40:50;;;;;;;;;;;26.30;43.70;;;;;;1505217;77;1164;-68
2023/07/14 03:42:52;;;;;;;;;;;26.30;43.80;;;;;;1506891;77;1149;-70
2023/07/14 03:44:54;;;;;;;;;;;26.30;43.80;;;;;;1513433;77;1614;-69
2023/07/14 03:46:56;;;;;;;;;;;26.30;43.70;;;;;;1508655;77;849;-71
2023/07/14 03:48:58;;;;;;;;;;;26.30;43.80;;;;;;1503890;77;717;-70
2023/07/14 03:51:01;;;;;;;;;;;26.30;43.60;;;;;;1498758;77;686;-69
2023/07/14 03:53:03;;;;;;;;;;;26.30;43.80;;;;;;1505313;77;1210;-70
2023/07/14 03:55:05;;;;;;;;;;;26.30;43.90;;;;;;1507116;77;746;-70
2023/07/14 03:57:07;;;;;;;;;;;26.30;44.00;;;;;;1506517;77;747;-69
2023/07/14 03:59:09;;;;;;;;;;;26.20;44.10;;;;;;1506084;77;1921;-69
2023/07/14 04:01:11;;;;;;;;;;;26.20;44.10;;;;;;1513096;77;724;-69
2023/07/14 04:03:12;;;;;;;;;;;26.20;44.00;;;;;;1506908;77;1121;-69
2023/07/14 04:05:14;;;;;;;;;;;26.30;43.80;;;;;;1514051;77;792;-69
2023/07/14 04:07:16;;;;;;;;;;;26.20;43.40;;;;;;1513947;77;727;-70
2023/07/14 04:09:18;;;;;;;;;;;26.30;43.40;;;;;;1512121;77;756;-69
2023/07/14 04:11:20;;;;;;;;;;;26.30;44.00;;;;;;1501200;77;752;-69
2023/07/14 04:13:22;;;;;;;;;;;26.10;44.20;;;;;;1508824;77;1625;-70
2023/07/14 04:15:24;;;;;;;;;;;26.20;44.30;;;;;;1505446;77;722;-69
2023/07/14 04:17:26;;;;;;;;;;;26.30;44.40;;;;;;1502945;77;758;-68
2023/07/14 04:19:28;;;;;;;;;;;26.20;44.30;;;;;;1504485;77;1915;-68
2023/07/14 04:21:30;;;;;;;;;;;26.30;44.20;;;;;;1511413;77;621;-69
2023/07/14 04:23:32;;;;;;;;;;;26.30;44.10;;;;;;1507235;77;1104;-69
2023/07/14 04:25:35;;;;;;;;;;;26.30;43.90;;;;;;1503581;77;1026;-70
2023/07/14 04:27:37;;;;;;;;;;;26.30;44.00;;;;;;1512619;77;1424;-69
2023/07/14 04:29:39;;;;;;;;;;;26.30;43.90;;;;;;1512363;77;771;-68
2023/07/14 04:31:41;;;;;;;;;;;26.30;43.80;;;;;;1516507;77;1178;-67
2023/07/14 04:33:44;;;;;;;;;;;26.30;43.90;;;;;;1515080;77;817;-70
2023/07/14 04:35:46;;;;;;;;;;;26.20;44.00;;;;;;1509964;78;678;-70
2023/07/14 04:37:48;;;;;;;;;;;26.20;44.10;;;;;;1504130;77;736;-70
2023/07/14 04:39:51;;;;;;;;;;;26.30;43.70;;;;;;1511121;77;1907;-70
2023/07/14 04:41:54;;;;;;;;;;;26.20;43.70;;;;;;1503919;77;1113;-70
2023/07/14 04:43:56;;;;;;;;;;;26.30;43.70;;;;;;1510938;77;748;-70
2023/07/14 04:45:58;;;;;;;;;;;26.30;43.70;;;;;;1510880;78;801;-69
2023/07/14 04:48:00;;;;;;;;;;;26.20;43.70;;;;;;1518675;77;816;-68
2023/07/14 04:50:02;;;;;;;;;;;26.30;44.00;;;;;;1515756;77;797;-66
2023/07/14 04:52:04;;;;;;;;;;;26.20;43.80;;;;;;1495390;77;1130;-67
2023/07/14 04:54:06;;;;;;;;;;;26.20;43.20;;;;;;1509756;77;1576;-68
2023/07/14 04:56:08;;;;;;;;;;;26.10;42.60;;;;;;1508869;77;806;-69
2023/07/14 04:58:10;;;;;;;;;;;26.10;42.50;;;;;;1504339;77;760;-66
2023/07/14 05:00:12;;;;;;;;;;;26.10;42.50;;;;;;1515344;77;1908;-68
2023/07/14 05:02:14;;;;;;;;;;;26.00;42.50;;;;;;1508457;77;1137;-70
2023/07/14 05:04:16;;;;;;;;;;;26.10;42.60;;;;;;1508339;77;732;-68
2023/07/14 05:06:18;;;;;;;;;;;26.00;42.60;;;;;;1513366;77;758;-67
2023/07/14 05:08:20;;;;;;;;;;;26.00;42.60;;;;;;1502406;77;1541;-65
2023/07/14 05:10:23;;;;;;;;;;;26.00;42.70;;;;;;1519324;77;751;-68
2023/07/14 05:12:25;;;;;;;;;;;26.00;42.80;;;;;;1504336;77;1217;-69
2023/07/14 05:14:27;;;;;;;;;;;26.00;42.70;;;;;;1506842;77;690;-69
2023/07/14 05:16:29;;;;;;;;;;;26.00;42.80;;;;;;1511867;77;788;-67
2023/07/14 05:18:31;;;;;;;;;;;26.00;42.80;;;;;;1507337;78;683;-67
2023/07/14 05:20:33;;;;;;;;;;;26.00;42.80;;;;;;1511762;77;1933;-67
2023/07/14 05:22:34;;;;;;;;;;;26.00;42.90;;;;;;1513282;77;1634;-69
2023/07/14 05:24:36;;;;;;;;;;;26.00;42.80;;;;;;1511505;77;778;-67
2023/07/14 05:26:38;;;;;;;;;;;26.00;42.90;;;;;;1503459;77;700;-68
2023/07/14 05:28:40;;;;;;;;;;;26.00;42.90;;;;;;1509322;77;726;-69
2023/07/14 05:30:42;;;;;;;;;;;26.00;43.00;;;;;;1512648;77;740;-68
2023/07/14 05:32:44;;;;;;;;;;;26.00;42.80;;;;;;1505505;77;1169;-66
2023/07/14 05:34:46;;;;;;;;;;;26.00;42.80;;;;;;1513446;77;715;-67
2023/07/14 05:36:48;;;;;;;;;;;25.90;42.40;;;;;;1510813;77;1345;-67
2023/07/14 05:38:50;;;;;;;;;;;25.90;42.60;;;;;;1510606;77;722;-64
2023/07/14 05:40:54;;;;;;;;;;;25.90;43.00;;;;;;1510096;77;1919;-66
2023/07/14 05:42:56;;;;;;;;;;;25.90;43.10;;;;;;1506676;77;1174;-68
2023/07/14 05:44:58;;;;;;;;;;;25.90;43.20;;;;;;1500657;77;696;-68
2023/07/14 05:46:59;;;;;;;;;;;25.90;43.50;;;;;;1507632;77;810;-69
2023/07/14 05:49:01;;;;;;;;;;;25.90;43.70;;;;;;1501192;77;786;-67
2023/07/14 05:51:03;;;;;;;;;;;25.90;43.90;;;;;;1524673;77;1457;-68
2023/07/14 05:53:05;;;;;;;;;;;26.00;44.40;;;;;;1512644;77;1162;-68
2023/07/14 05:55:07;;;;;;;;;;;25.90;44.00;;;;;;1507352;77;671;-67
2023/07/14 05:57:09;;;;;;;;;;;25.90;44.10;;;;;;1504640;77;735;-68
2023/07/14 05:59:12;;;;;;;;;;;25.90;44.30;;;;;;1503112;77;695;-68
2023/07/14 06:01:14;;;;;;;;;;;26.00;44.60;;;;;;1508468;77;758;-67
2023/07/14 06:03:18;;;;;;;;;;;25.90;44.00;;;;;;1500597;78;1120;-67
2023/07/14 06:05:20;;;;;;;;;;;25.90;44.30;;;;;;1513691;77;1593;-67
2023/07/14 06:07:22;;;;;;;;;;;25.90;44.20;;;;;;1513898;77;786;-67
2023/07/14 06:09:24;;;;;;;;;;;26.00;44.80;;;;;;1511153;77;673;-69
2023/07/14 06:11:26;;;;;;;;;;;25.90;44.20;;;;;;1510641;77;765;-67
2023/07/14 06:13:28;;;;;;;;;;;25.90;44.10;;;;;;1512384;77;1133;-69
2023/07/14 06:15:30;;;;;;;;;;;25.90;44.10;;;;;;1514000;77;756;-68
2023/07/14 06:17:32;;;;;;;;;;;26.00;44.50;;;;;;1513975;77;722;-69
2023/07/14 06:19:34;;;;;;;;;;;26.00;44.50;;;;;;1511038;77;1945;-67
2023/07/14 06:21:36;;;;;;;;;;;26.00;44.50;;;;;;1509956;77;685;-68
2023/07/14 06:23:37;;;;;;;;;;;26.00;44.60;;;;;;1510346;78;1088;-68
2023/07/14 06:25:39;;;;;;;;;;;25.90;44.20;;;;;;1513299;77;749;-67
2023/07/14 06:27:41;;;;;;;;;;;26.00;45.00;;;;;;1504951;77;694;-68
2023/07/14 06:29:43;;;;;;;;;;;26.00;44.70;;;;;;1509921;77;691;-70
2023/07/14 06:31:45;;;;;;;;;;;26.00;44.80;;;;;;1514068;77;1182;-68
2023/07/14 06:33:47;;;;;;;;;;;26.20;44.80;;;;;;1511932;77;1607;-66
2023/07/14 06:35:49;;;;;;;;;;;26.30;44.60;;;;;;1512243;77;713;-67
2023/07/14 06:37:51;;;;;;;;;;;26.50;44.30;;;;;;1509664;77;704;-66
2023/07/14 06:39:53;;;;;;;;;;;26.50;43.50;;;;;;1514308;77;1928;-67
2023/07/14 06:41:55;;;;;;;;;;;26.70;43.10;;;;;;1507431;77;1134;-68
2023/07/14 06:43:58;;;;;;;;;;;26.70;42.80;;;;;;1501980;77;720;-65
2023/07/14 06:46:00;;;;;;;;;;;26.90;42.40;;;;;;1505567;77;730;-68
2023/07/14 06:48:02;;;;;;;;;;;27.00;42.80;;;;;;1507772;77;1604;-68
2023/07/14 06:50:05;;;;;;;;;;;27.10;42.80;;;;;;1500601;77;767;-67
2023/07/14 06:52:07;;;;;;;;;;;27.10;42.60;;;;;;1506900;77;1120;-70
2023/07/14 06:54:09;;;;;;;;;;;27.10;42.30;;;;;;1494842;77;817;-67
2023/07/14 06:56:13;;;;;;;;;;;27.10;42.20;;;;;;1500391;77;801;-67
2023/07/14 06:58:15;;;;;;;;;;;27.30;42.10;;;;;;1512354;77;2020;-68
2023/07/14 07:00:17;;;;;;;;;;;27.30;42.00;;;;;;1507988;77;1936;-67
2023/07/14 07:02:18;;;;;;;;;;;27.40;41.90;;;;;;1506693;77;1438;-67
2023/07/14 07:04:21;;;;;;;;;;;27.30;41.80;;;;;;1506154;77;726;-66
2023/07/14 07:06:23;;;;;;;;;;;27.30;41.70;;;;;;1505089;77;747;-67
2023/07/14 07:08:25;;;;;;;;;;;27.40;41.60;;;;;;1512480;77;662;-67
2023/07/14 07:10:28;;;;;;;;;;;27.40;41.40;;;;;;1504218;77;680;-66
2023/07/14 07:12:30;;;;;;;;;;;27.40;41.40;;;;;;1513304;77;1088;-67
2023/07/14 07:14:32;;;;;;;;;;;27.50;41.30;;;;;;1510881;77;1586;-68
2023/07/14 07:16:34;;;;;;;;;;;27.50;41.30;;;;;;1501038;77;681;-66
2023/07/14 07:18:36;;;;;;;;;;;27.50;41.20;;;;;;1502345;77;689;-66
2023/07/14 07:20:38;;;;;;;;;;;27.50;41.20;;;;;;1509016;77;1969;-67
2023/07/14 07:22:40;;;;;;;;;;;27.50;41.10;;;;;;1512844;78;1137;-67
2023/07/14 07:24:42;;;;;;;;;;;27.50;41.00;;;;;;1511290;77;737;-67
2023/07/14 07:26:44;;;;;;;;;;;27.60;41.00;;;;;;1501819;77;661;-66
2023/07/14 07:28:46;;;;;;;;;;;27.60;41.00;;;;;;1508584;77;1552;-66
2023/07/14 07:30:48;;;;;;;;;;;27.50;41.00;;;;;;1516707;77;730;-66
2023/07/14 07:32:50;;;;;;;;;;;27.60;41.00;;;;;;1509587;77;1124;-66
2023/07/14 07:34:52;;;;;;;;;;;27.60;41.00;;;;;;1519981;77;741;-67
2023/07/14 07:36:54;;;;;;;;;;;27.50;41.00;;;;;;1506432;77;698;-66
2023/07/14 07:38:55;;;;;;;;;;;27.50;41.20;;;;;;1515961;77;648;-69
2023/07/14 07:40:59;;;;;;;;;;;27.50;41.10;;;;;;1502995;77;1950;-66
2023/07/14 07:43:01;;;;;;;;;;;27.50;41.00;;;;;;1505219;77;1347;-68
2023/07/14 07:45:03;;;;;;;;;;;27.60;41.00;;;;;;1526022;77;949;-66
2023/07/14 07:47:05;;;;;;;;;;;27.60;40.80;;;;;;1504747;77;744;-65
2023/07/14 07:49:07;;;;;;;;;;;27.60;40.80;;;;;;1506966;77;822;-67
2023/07/14 07:51:09;;;;;;;;;;;27.70;40.70;;;;;;1516973;77;718;-69
2023/07/14 07:53:11;;;;;;;;;;;27.70;40.80;;;;;;1514006;77;1159;-67
2023/07/14 07:55:13;;;;;;;;;;;27.70;40.70;;;;;;1508667;77;710;-65
2023/07/14 07:57:14;;;;;;;;;;;27.70;40.70;;;;;;1504386;77;1563;-67
2023/07/14 07:59:16;;;;;;;;;;;27.70;40.70;;;;;;1510469;77;689;-66
2023/07/14 08:01:23;;;;;;;;;;;27.70;40.70;;;;;;1511598;77;1945;-67
2023/07/14 08:03:25;;;;;;;;;;;27.70;40.70;;;;;;1509927;77;1158;-67
2023/07/14 08:05:27;;;;;;;;;;;27.70;40.70;;;;;;1504558;77;701;-70
2023/07/14 08:07:29;;;;;;;;;;;27.70;40.60;;;;;;1506523;77;646;-68
2023/07/14 08:09:31;;;;;;;;;;;27.60;41.10;;;;;;1502958;77;662;-68
2023/07/14 08:11:33;;;;;;;;;;;27.50;41.10;;;;;;1506754;77;1539;-69
2023/07/14 08:13:35;;;;;;;;;;;27.50;41.30;;;;;;1501447;77;1128;-69
2023/07/14 08:15:37;;;;;;;;;;;27.40;41.40;;;;;;1502221;77;825;-71
2023/07/14 08:17:40;;;;;;;;;;;27.40;41.70;;;;;;1510548;77;735;-68
2023/07/14 08:19:42;;;;;;;;;;;27.40;42.00;;;;;;1508126;78;2011;-69
2023/07/14 08:21:44;;;;;;;;;;;27.40;42.10;;;;;;1512148;78;1942;-69
2023/07/14 08:23:46;;;;;;;;;;;27.40;41.80;;;;;;1512910;77;669;-69
2023/07/14 08:25:52;;;;;;;;;;;27.40;41.80;;;;;;1508628;77;1563;-70
2023/07/14 08:27:54;;;;;;;;;;;27.50;41.90;;;;;;1516369;77;587;-71
2023/07/14 08:29:56;;;;;;;;;;;27.40;42.00;;;;;;1501310;77;721;-70
2023/07/14 08:31:58;;;;;;;;;;;27.40;41.80;;;;;;1506806;77;1154;-66
2023/07/14 08:33:59;;;;;;;;;;;27.40;41.70;;;;;;1505642;77;685;-71
2023/07/14 08:36:01;;;;;;;;;;;27.50;41.50;;;;;;1507461;77;838;-69
2023/07/14 08:38:03;;;;;;;;;;;27.40;41.60;;;;;;1510132;77;712;-70
2023/07/14 08:40:06;;;;;;;;;;;27.40;41.50;;;;;;1513181;77;1187;-69
2023/07/14 08:42:10;;;;;;;;;;;27.30;41.50;;;;;;1507886;77;1917;-68
2023/07/14 08:44:15;;;;;;;;;;;27.30;41.80;;;;;;1503278;77;1562;-68
2023/07/14 08:46:21;;;;;;;;;;;27.30;41.80;;;;;;1514566;77;1576;-67
2023/07/14 08:48:31;;;;;;;;;;;27.40;41.70;;;;;;1511124;77;727;-69
2023/07/14 08:50:33;;;;;;;;;;;27.40;41.50;;;;;;1506913;77;1428;-70
2023/07/14 08:52:35;;;;;;;;;;;27.40;40.70;;;;;;1506909;77;1101;-69
2023/07/14 08:54:38;;;;;;;;;;;27.40;41.10;;;;;;1501133;77;1564;-68
2023/07/14 08:56:40;;;;;;;;;;;27.30;40.80;;;;;;1495391;77;1602;-72
2023/07/14 08:58:43;;;;;;;;;;;27.30;40.60;;;;;;1507638;77;704;-70
2023/07/14 09:00:48;;;;;;;;;;;27.20;41.10;;;;;;1509406;77;1927;-69
2023/07/14 09:02:51;;;;;;;;;;;27.20;40.60;;;;;;1505616;77;1661;-69
2023/07/14 09:04:55;;;;;;;;;;;27.20;41.20;;;;;;1511706;77;1229;-69
2023/07/14 09:06:57;;;;;;;;;;;27.40;41.30;;;;;;1500682;78;1758;-65
2023/07/14 09:08:58;;;;;;;;;;;27.30;40.20;;;;;;1507764;77;1690;-69
2023/07/14 09:11:05;;;;;;;;;;;27.30;40.40;;;;;;1511719;77;924;-69
2023/07/14 09:13:08;;;;;;;;;;;27.30;40.10;;;;;;1512802;77;1706;-69
2023/07/14 09:15:11;;;;;;;;;;;27.20;40.30;;;;;;1504705;77;1875;-69
2023/07/14 09:17:33;;;;;;;;;;;27.20;40.00;;;;;;1514465;77;726;-69
2023/07/14 09:19:39;;;;;;;;;;;27.20;40.20;;;;;;1510154;77;666;-69
2023/07/14 09:21:51;;;;;;;;;;;27.10;40.70;;;;;;1510435;77;1956;-70
2023/07/14 09:23:55;;;;;;;;;;;27.20;40.90;;;;;;1511763;77;1841;-69
2023/07/14 09:26:02;;;;;;;;;;;27.20;40.30;;;;;;1485639;77;1682;-69
2023/07/14 09:28:03;;;;;;;;;;;27.20;40.40;;;;;;1515038;77;846;-70
2023/07/14 09:30:08;;;;;;;;;;;27.20;40.00;;;;;;1512652;77;751;-69
2023/07/14 09:32:23;;;;;;;;;;;27.10;39.50;;;;;;1506833;77;1665;-69
2023/07/14 09:34:29;;;;;;;;;;;27.10;39.60;;;;;;1513931;77;747;-70
2023/07/14 09:36:31;;;;;;;;;;;27.10;39.20;;;;;;1505941;77;1559;-69
2023/07/14 09:38:40;;;;;;;;;;;27.10;39.70;;;;;;1508848;77;738;-70
2023/07/14 09:40:42;;;;;;;;;;;27.10;39.50;;;;;;1507453;77;1925;-70
2023/07/14 09:42:45;;;;;;;;;;;27.00;40.10;;;;;;1508900;78;1167;-69
2023/07/14 09:44:47;;;;;;;;;;;27.10;39.30;;;;;;1500651;77;685;-70
2023/07/14 09:46:49;;;;;;;;;;;27.10;39.50;;;;;;1509167;77;658;-67
2023/07/14 09:48:56;;;;;;;;;;;27.00;39.00;;;;;;1499383;78;691;-69
2023/07/14 09:51:02;;;;;;;;;;;27.00;39.10;;;;;;1506915;77;2057;-68
2023/07/14 09:53:05;;;;;;;;;;;27.10;40.40;;;;;;1496769;77;1189;-70
2023/07/14 09:55:09;;;;;;;;;;;27.00;39.10;;;;;;1515723;77;693;-70
2023/07/14 09:57:11;;;;;;;;;;;27.00;38.90;;;;;;1498932;77;1709;-72
2023/07/14 09:59:19;;;;;;;;;;;27.00;38.80;;;;;;1508091;77;714;-69
2023/07/14 10:01:21;;;;;;;;;;;26.90;38.20;;;;;;1502790;77;1954;-69
2023/07/14 10:03:30;;;;;;;;;;;26.90;38.30;;;;;;1511378;77;1564;-71
2023/07/14 10:05:45;;;;;;;;;;;26.90;38.50;;;;;;1503547;77;1624;-68
2023/07/14 10:07:47;;;;;;;;;;;26.90;37.70;;;;;;1509347;77;1084;-70
2023/07/14 10:09:57;;;;;;;;;;;26.90;37.80;;;;;;1514434;77;1217;-71
2023/07/14 10:12:00;;;;;;;;;;;26.80;37.80;;;;;;1505687;77;1157;-70
2023/07/14 10:14:07;;;;;;;;;;;26.90;38.30;;;;;;1509668;77;1233;-71
2023/07/14 10:16:10;;;;;;;;;;;26.80;37.60;;;;;;1512262;77;1068;-70
2023/07/14 10:18:15;;;;;;;;;;;26.80;38.70;;;;;;1506224;77;2128;-70
2023/07/14 10:20:18;;;;;;;;;;;26.80;38.40;;;;;;1512510;77;1228;-70
2023/07/14 10:22:20;;;;;;;;;;;26.80;38.10;;;;;;1511010;77;1927;-70
2023/07/14 10:24:24;;;;;;;;;;;26.80;37.90;;;;;;1499643;77;1103;-70
2023/07/14 10:26:30;;;;;;;;;;;26.90;38.30;;;;;;1509309;77;1082;-69
2023/07/14 10:28:33;;;;;;;;;;;26.90;38.00;;;;;;1513687;77;1738;-69
2023/07/14 10:30:46;;;;;;;;;;;26.80;39.20;;;;;;1507256;77;1082;-70
2023/07/14 10:32:49;;;;;;;;;;;26.90;39.20;;;;;;1507016;77;1519;-71
2023/07/14 10:34:55;;;;;;;;;;;26.90;38.60;;;;;;1515451;77;1201;-70
2023/07/14 10:36:58;;;;;;;;;;;26.90;39.40;;;;;;1509344;77;1152;-70
2023/07/14 10:39:06;;;;;;;;;;;26.90;39.70;;;;;;1508972;77;1119;-73
2023/07/14 10:41:09;;;;;;;;;;;26.90;39.70;;;;;;1510751;77;1940;-69
2023/07/14 10:43:12;;;;;;;;;;;26.90;39.10;;;;;;1503158;77;1125;-70
2023/07/14 10:45:15;;;;;;;;;;;26.90;38.90;;;;;;1506385;77;1873;-71
2023/07/14 10:47:18;;;;;;;;;;;26.90;39.30;;;;;;1508962;77;1196;-71
2023/07/14 10:49:24;;;;;;;;;;;26.90;39.50;;;;;;1507495;77;1092;-70
2023/07/14 10:51:36;;;;;;;;;;;26.90;38.30;;;;;;1515290;77;1138;-72
2023/07/14 10:53:45;;;;;;;;;;;26.80;38.90;;;;;;1509482;77;1171;-70
2023/07/14 10:55:47;;;;;;;;;;;26.80;38.50;;;;;;1500926;77;1690;-71
2023/07/14 10:57:54;;;;;;;;;;;26.80;38.50;;;;;;1507932;77;1098;-71
2023/07/14 10:59:57;;;;;;;;;;;26.70;38.00;;;;;;1509821;77;1334;-70
2023/07/14 11:02:01;;;;;;;;;;;26.80;38.30;;;;;;1503529;77;1949;-74
2023/07/14 11:04:17;;;;;;;;;;;26.70;38.40;;;;;;1507205;77;1141;-70
2023/07/14 11:06:20;;;;;;;;;;;26.70;39.00;;;;;;1505818;77;1090;-70
2023/07/14 11:08:23;;;;;;;;;;;26.70;39.20;;;;;;1511358;77;1637;-70
2023/07/14 11:10:29;;;;;;;;;;;26.80;38.70;;;;;;1510685;77;1018;-70
2023/07/14 11:12:48;;;;;;;;;;;26.80;38.10;;;;;;1500046;77;1153;-70
2023/07/14 11:14:53;;;;;;;;;;;26.70;38.10;;;;;;1504511;77;1458;-69
2023/07/14 11:16:57;;;;;;;;;;;26.70;38.90;;;;;;1503788;77;1854;-69
2023/07/14 11:19:00;;;;;;;;;;;26.70;38.30;;;;;;1501428;77;1832;-70
2023/07/14 11:21:16;;;;;;;;;;;26.80;38.70;;;;;;1515276;77;1702;-68
2023/07/14 11:23:37;;;;;;;;;;;26.80;38.00;;;;;;1510357;77;1147;-68
2023/07/14 11:25:46;;;;;;;;;;;26.70;38.40;;;;;;1508319;77;1063;-69
2023/07/14 11:27:59;;;;;;;;;;;26.70;38.60;;;;;;1507411;77;1509;-69
2023/07/14 11:30:03;;;;;;;;;;;26.80;38.60;;;;;;1506773;77;1068;-72
2023/07/14 11:32:05;;;;;;;;;;;26.70;38.60;;;;;;1506719;77;1324;-70
2023/07/14 11:34:08;;;;;;;;;;;26.70;38.10;;;;;;1512601;77;1201;-69
2023/07/14 11:36:15;;;;;;;;;;;26.70;38.70;;;;;;1511652;77;1095;-72
2023/07/14 11:38:31;;;;;;;;;;;26.70;38.60;;;;;;1510894;77;1802;-70
2023/07/14 11:40:34;;;;;;;;;;;26.70;38.10;;;;;;1511780;77;1850;-71
2023/07/14 11:42:36;;;;;;;;;;;26.70;37.50;;;;;;1512258;77;2123;-70
2023/07/14 11:44:38;;;;;;;;;;;26.70;37.90;;;;;;1504765;77;1120;-70
2023/07/14 11:46:40;;;;;;;;;;;26.70;38.40;;;;;;1512266;77;1305;-71
2023/07/14 11:48:46;;;;;;;;;;;26.70;38.00;;;;;;1501735;77;1142;-70
2023/07/14 11:50:49;;;;;;;;;;;26.70;38.40;;;;;;1506080;77;1949;-70
2023/07/14 11:52:57;;;;;;;;;;;26.80;38.00;;;;;;1478095;79;1283;-72
2023/07/14 11:55:03;;;;;;;;;;;26.80;37.60;;;;;;1508230;77;1138;-71
2023/07/14 11:57:06;;;;;;;;;;;26.80;37.80;;;;;;1507699;77;1552;-72
2023/07/14 11:59:16;;;;;;;;;;;26.70;37.40;;;;;;1510197;77;1483;-71
2023/07/14 12:01:19;;;;;;;;;;;26.70;38.00;;;;;;1510314;77;1939;-72
2023/07/14 12:03:25;;;;;;;;;;;26.70;37.60;;;;;;1506815;77;1177;-71
2023/07/14 12:05:33;;;;;;;;;;;26.70;38.20;;;;;;1510059;77;1136;-72
2023/07/14 12:07:32;;;;;;;;;;;26.80;38.10;;;;;;1512357;77;1344;-69
2023/07/14 12:09:34;;;;;;;;;;;26.70;37.80;;;;;;1514265;77;1130;-70
2023/07/14 12:11:40;;;;;;;;;;;26.70;37.90;;;;;;1502496;77;1499;-71
2023/07/14 12:13:42;;;;;;;;;;;26.80;38.40;;;;;;1509414;77;1082;-71